sensor_id;sensor_type;location;lat;lon;timestamp;P1;durP1;ratioP1;P2;durP2;ratioP2
15295;SDS011;7749;49.964;7.890;2024-03-23T00:52:12;25.07;;;18.23;;
15295;SDS011;7749;49.964;7.890;2024-03-23T00:54:38;27.97;;;20.77;;
15295;SDS011;7749;49.964;7.890;2024-03-23T00:57:05;29.67;;;21.23;;
15295;SDS011;7749;49.964;7.890;2024-03-23T00:59:31;25.83;;;19.83;;
15295;SDS011;7749;49.964;7.890;2024-03-23T01:01:58;23.17;;;18.07;;
15295;SDS011;7749;49.964;7.890;2024-03-23T01:04:24;21.73;;;17.93;;
15295;SDS011;7749;49.964;7.890;2024-03-23T01:06:50;22.90;;;18.00;;
15295;SDS011;7749;49.964;7.890;2024-03-23T01:09:17;22.67;;;17.17;;
15295;SDS011;7749;49.964;7.890;2024-03-23T01:11:43;22.90;;;17.83;;
15295;SDS011;7749;49.964;7.890;2024-03-23T01:14:09;28.53;;;21.40;;
15295;SDS011;7749;49.964;7.890;2024-03-23T01:16:36;28.37;;;20.97;;
15295;SDS011;7749;49.964;7.890;2024-03-23T01:19:02;26.30;;;17.40;;
15295;SDS011;7749;49.964;7.890;2024-03-23T01:21:28;26.13;;;18.63;;
15295;SDS011;7749;49.964;7.890;2024-03-23T01:23:55;24.40;;;17.10;;
15295;SDS011;7749;49.964;7.890;2024-03-23T01:26:21;24.53;;;18.43;;
15295;SDS011;7749;49.964;7.890;2024-03-23T01:28:48;20.77;;;14.93;;
15295;SDS011;7749;49.964;7.890;2024-03-23T01:31:14;20.40;;;15.40;;
15295;SDS011;7749;49.964;7.890;2024-03-23T01:33:41;20.73;;;15.17;;
15295;SDS011;7749;49.964;7.890;2024-03-23T01:36:08;22.63;;;16.90;;
15295;SDS011;7749;49.964;7.890;2024-03-23T01:38:34;21.57;;;16.33;;
15295;SDS011;7749;49.964;7.890;2024-03-23T01:41:02;21.67;;;16.23;;
15295;SDS011;7749;49.964;7.890;2024-03-23T01:43:28;21.97;;;15.67;;
15295;SDS011;7749;49.964;7.890;2024-03-23T01:45:55;18.47;;;13.90;;
15295;SDS011;7749;49.964;7.890;2024-03-23T01:48:21;19.50;;;14.07;;
15295;SDS011;7749;49.964;7.890;2024-03-23T01:50:49;18.17;;;14.20;;
15295;SDS011;7749;49.964;7.890;2024-03-23T01:53:15;16.13;;;13.67;;
15295;SDS011;7749;49.964;7.890;2024-03-23T01:55:43;17.67;;;14.00;;
15295;SDS011;7749;49.964;7.890;2024-03-23T01:58:10;16.90;;;13.47;;
15295;SDS011;7749;49.964;7.890;2024-03-23T02:00:36;17.43;;;14.20;;
15295;SDS011;7749;49.964;7.890;2024-03-23T02:03:03;18.53;;;14.13;;
15295;SDS011;7749;49.964;7.890;2024-03-23T02:05:51;20.43;;;13.93;;
15295;SDS011;7749;49.964;7.890;2024-03-23T02:08:20;19.17;;;14.67;;
15295;SDS011;7749;49.964;7.890;2024-03-23T02:10:48;17.73;;;14.30;;
15295;SDS011;7749;49.964;7.890;2024-03-23T02:13:15;18.10;;;14.20;;
15295;SDS011;7749;49.964;7.890;2024-03-23T02:15:42;20.93;;;16.07;;
15295;SDS011;7749;49.964;7.890;2024-03-23T02:18:08;17.67;;;14.40;;
15295;SDS011;7749;49.964;7.890;2024-03-23T02:20:35;17.83;;;14.33;;
15295;SDS011;7749;49.964;7.890;2024-03-23T02:23:02;18.63;;;14.83;;
15295;SDS011;7749;49.964;7.890;2024-03-23T02:25:34;21.27;;;14.77;;
15295;SDS011;7749;49.964;7.890;2024-03-23T02:28:01;20.70;;;15.07;;
15295;SDS011;7749;49.964;7.890;2024-03-23T02:30:27;21.73;;;16.50;;
15295;SDS011;7749;49.964;7.890;2024-03-23T02:32:54;23.40;;;16.07;;
15295;SDS011;7749;49.964;7.890;2024-03-23T02:35:20;24.20;;;17.90;;
15295;SDS011;7749;49.964;7.890;2024-03-23T02:37:47;28.33;;;20.07;;
15295;SDS011;7749;49.964;7.890;2024-03-23T02:40:16;32.70;;;23.53;;
15295;SDS011;7749;49.964;7.890;2024-03-23T02:42:44;33.80;;;23.70;;
15295;SDS011;7749;49.964;7.890;2024-03-23T02:45:10;33.33;;;22.83;;
15295;SDS011;7749;49.964;7.890;2024-03-23T02:47:36;29.90;;;21.77;;
15295;SDS011;7749;49.964;7.890;2024-03-23T02:50:03;27.73;;;21.07;;
15295;SDS011;7749;49.964;7.890;2024-03-23T02:52:30;27.67;;;19.30;;
15295;SDS011;7749;49.964;7.890;2024-03-23T02:54:56;26.03;;;17.73;;
15295;SDS011;7749;49.964;7.890;2024-03-23T02:57:23;24.57;;;18.83;;
15295;SDS011;7749;49.964;7.890;2024-03-23T02:59:49;25.27;;;19.90;;
15295;SDS011;7749;49.964;7.890;2024-03-23T03:02:16;31.87;;;22.63;;
15295;SDS011;7749;49.964;7.890;2024-03-23T03:04:42;32.20;;;23.73;;
15295;SDS011;7749;49.964;7.890;2024-03-23T03:07:08;32.53;;;23.13;;
15295;SDS011;7749;49.964;7.890;2024-03-23T03:09:35;33.30;;;23.90;;
15295;SDS011;7749;49.964;7.890;2024-03-23T03:12:01;34.77;;;24.30;;
15295;SDS011;7749;49.964;7.890;2024-03-23T03:14:28;32.97;;;23.17;;
15295;SDS011;7749;49.964;7.890;2024-03-23T03:16:56;31.60;;;22.27;;
15295;SDS011;7749;49.964;7.890;2024-03-23T03:19:23;28.57;;;22.97;;
15295;SDS011;7749;49.964;7.890;2024-03-23T03:21:49;36.47;;;25.70;;
15295;SDS011;7749;49.964;7.890;2024-03-23T03:24:15;34.30;;;24.87;;
15295;SDS011;7749;49.964;7.890;2024-03-23T03:26:42;30.63;;;22.00;;
15295;SDS011;7749;49.964;7.890;2024-03-23T03:29:09;23.17;;;17.13;;
15295;SDS011;7749;49.964;7.890;2024-03-23T03:31:36;21.30;;;16.07;;
15295;SDS011;7749;49.964;7.890;2024-03-23T03:34:02;15.27;;;12.00;;
15295;SDS011;7749;49.964;7.890;2024-03-23T03:36:28;9.93;;;7.73;;
15295;SDS011;7749;49.964;7.890;2024-03-23T03:38:56;5.97;;;5.33;;
15295;SDS011;7749;49.964;7.890;2024-03-23T03:41:22;5.40;;;4.10;;
15295;SDS011;7749;49.964;7.890;2024-03-23T03:43:48;3.10;;;2.80;;
15295;SDS011;7749;49.964;7.890;2024-03-23T03:46:15;2.73;;;2.40;;
15295;SDS011;7749;49.964;7.890;2024-03-23T03:48:41;3.90;;;2.30;;
15295;SDS011;7749;49.964;7.890;2024-03-23T03:51:07;2.43;;;2.00;;
15295;SDS011;7749;49.964;7.890;2024-03-23T03:53:34;3.10;;;2.40;;
15295;SDS011;7749;49.964;7.890;2024-03-23T03:56:01;2.23;;;2.03;;
15295;SDS011;7749;49.964;7.890;2024-03-23T03:58:28;4.20;;;2.10;;
15295;SDS011;7749;49.964;7.890;2024-03-23T04:00:54;2.30;;;2.10;;
15295;SDS011;7749;49.964;7.890;2024-03-23T04:03:21;2.97;;;2.50;;
15295;SDS011;7749;49.964;7.890;2024-03-23T04:05:53;3.47;;;2.47;;
15295;SDS011;7749;49.964;7.890;2024-03-23T04:08:20;3.53;;;2.10;;
15295;SDS011;7749;49.964;7.890;2024-03-23T04:10:47;2.27;;;2.07;;
15295;SDS011;7749;49.964;7.890;2024-03-23T04:13:13;2.10;;;2.00;;
15295;SDS011;7749;49.964;7.890;2024-03-23T04:15:40;2.00;;;1.80;;
15295;SDS011;7749;49.964;7.890;2024-03-23T04:18:06;2.33;;;2.00;;
15295;SDS011;7749;49.964;7.890;2024-03-23T04:20:34;1.53;;;1.40;;
15295;SDS011;7749;49.964;7.890;2024-03-23T04:23:01;3.03;;;1.70;;
15295;SDS011;7749;49.964;7.890;2024-03-23T04:25:27;2.90;;;1.63;;
15295;SDS011;7749;49.964;7.890;2024-03-23T04:27:53;2.07;;;1.50;;
15295;SDS011;7749;49.964;7.890;2024-03-23T04:30:20;1.80;;;1.70;;
15295;SDS011;7749;49.964;7.890;2024-03-23T04:32:47;1.87;;;1.77;;
15295;SDS011;7749;49.964;7.890;2024-03-23T04:35:13;2.07;;;1.60;;
15295;SDS011;7749;49.964;7.890;2024-03-23T04:37:40;1.70;;;1.60;;
15295;SDS011;7749;49.964;7.890;2024-03-23T04:40:09;2.37;;;1.50;;
15295;SDS011;7749;49.964;7.890;2024-03-23T04:42:37;1.70;;;1.60;;
15295;SDS011;7749;49.964;7.890;2024-03-23T04:45:04;1.70;;;1.60;;
15295;SDS011;7749;49.964;7.890;2024-03-23T04:47:32;2.10;;;1.90;;
15295;SDS011;7749;49.964;7.890;2024-03-23T04:49:58;2.67;;;1.70;;
15295;SDS011;7749;49.964;7.890;2024-03-23T04:52:25;2.47;;;2.27;;
15295;SDS011;7749;49.964;7.890;2024-03-23T04:54:51;2.37;;;1.80;;
15295;SDS011;7749;49.964;7.890;2024-03-23T04:57:17;1.90;;;1.63;;
15295;SDS011;7749;49.964;7.890;2024-03-23T04:59:44;2.30;;;1.60;;
15295;SDS011;7749;49.964;7.890;2024-03-23T05:02:10;2.17;;;1.97;;
15295;SDS011;7749;49.964;7.890;2024-03-23T05:04:36;2.30;;;1.70;;
15295;SDS011;7749;49.964;7.890;2024-03-23T05:07:03;2.30;;;1.73;;
15295;SDS011;7749;49.964;7.890;2024-03-23T05:09:30;2.70;;;1.87;;
15295;SDS011;7749;49.964;7.890;2024-03-23T05:11:59;1.63;;;1.53;;
15295;SDS011;7749;49.964;7.890;2024-03-23T05:14:28;1.57;;;1.47;;
15295;SDS011;7749;49.964;7.890;2024-03-23T05:16:55;2.40;;;1.77;;
15295;SDS011;7749;49.964;7.890;2024-03-23T05:19:21;2.00;;;1.80;;
15295;SDS011;7749;49.964;7.890;2024-03-23T05:21:48;1.60;;;1.50;;
15295;SDS011;7749;49.964;7.890;2024-03-23T05:24:15;1.40;;;1.30;;
15295;SDS011;7749;49.964;7.890;2024-03-23T05:26:41;1.30;;;1.20;;
15295;SDS011;7749;49.964;7.890;2024-03-23T05:29:07;0.90;;;0.90;;
15295;SDS011;7749;49.964;7.890;2024-03-23T05:31:36;0.83;;;0.83;;
15295;SDS011;7749;49.964;7.890;2024-03-23T05:34:03;1.40;;;1.00;;
15295;SDS011;7749;49.964;7.890;2024-03-23T05:36:29;1.10;;;1.00;;
15295;SDS011;7749;49.964;7.890;2024-03-23T05:38:58;1.10;;;1.00;;
15295;SDS011;7749;49.964;7.890;2024-03-23T05:41:24;0.70;;;0.70;;
15295;SDS011;7749;49.964;7.890;2024-03-23T05:43:50;0.87;;;0.70;;
15295;SDS011;7749;49.964;7.890;2024-03-23T05:46:17;0.67;;;0.67;;
15295;SDS011;7749;49.964;7.890;2024-03-23T05:48:43;0.60;;;0.60;;
15295;SDS011;7749;49.964;7.890;2024-03-23T05:51:10;0.87;;;0.87;;
15295;SDS011;7749;49.964;7.890;2024-03-23T05:53:38;0.80;;;0.70;;
15295;SDS011;7749;49.964;7.890;2024-03-23T05:56:04;0.57;;;0.57;;
15295;SDS011;7749;49.964;7.890;2024-03-23T05:58:32;0.50;;;0.50;;
15295;SDS011;7749;49.964;7.890;2024-03-23T06:00:59;0.60;;;0.60;;
15295;SDS011;7749;49.964;7.890;2024-03-23T06:03:30;1.33;;;0.73;;
15295;SDS011;7749;49.964;7.890;2024-03-23T06:05:56;0.70;;;0.70;;
15295;SDS011;7749;49.964;7.890;2024-03-23T06:08:23;0.90;;;0.60;;
15295;SDS011;7749;49.964;7.890;2024-03-23T06:10:50;2.17;;;0.90;;
15295;SDS011;7749;49.964;7.890;2024-03-23T06:13:16;4.23;;;2.97;;
15295;SDS011;7749;49.964;7.890;2024-03-23T06:15:43;1.37;;;1.17;;
15295;SDS011;7749;49.964;7.890;2024-03-23T06:18:12;1.70;;;1.60;;
15295;SDS011;7749;49.964;7.890;2024-03-23T06:20:38;2.93;;;1.27;;
15295;SDS011;7749;49.964;7.890;2024-03-23T06:23:05;3.40;;;1.90;;
15295;SDS011;7749;49.964;7.890;2024-03-23T06:25:31;1.67;;;1.57;;
15295;SDS011;7749;49.964;7.890;2024-03-23T06:27:58;2.93;;;1.60;;
15295;SDS011;7749;49.964;7.890;2024-03-23T06:30:24;2.70;;;1.87;;
15295;SDS011;7749;49.964;7.890;2024-03-23T06:32:52;2.93;;;1.90;;
15295;SDS011;7749;49.964;7.890;2024-03-23T06:35:19;2.70;;;1.90;;
15295;SDS011;7749;49.964;7.890;2024-03-23T06:37:45;3.80;;;2.23;;
15295;SDS011;7749;49.964;7.890;2024-03-23T06:40:12;2.57;;;2.33;;
15295;SDS011;7749;49.964;7.890;2024-03-23T06:42:38;2.70;;;2.47;;
15295;SDS011;7749;49.964;7.890;2024-03-23T06:45:05;6.10;;;2.83;;
15295;SDS011;7749;49.964;7.890;2024-03-23T06:47:32;2.53;;;2.00;;
15295;SDS011;7749;49.964;7.890;2024-03-23T06:49:59;3.13;;;2.37;;
15295;SDS011;7749;49.964;7.890;2024-03-23T06:52:29;3.87;;;2.20;;
15295;SDS011;7749;49.964;7.890;2024-03-23T06:54:56;16.47;;;12.27;;
15295;SDS011;7749;49.964;7.890;2024-03-23T06:57:23;4.47;;;3.80;;
15295;SDS011;7749;49.964;7.890;2024-03-23T06:59:49;3.90;;;3.00;;
15295;SDS011;7749;49.964;7.890;2024-03-23T07:02:16;3.17;;;2.70;;
15295;SDS011;7749;49.964;7.890;2024-03-23T07:04:42;4.63;;;2.40;;
15295;SDS011;7749;49.964;7.890;2024-03-23T07:07:09;3.23;;;2.40;;
15295;SDS011;7749;49.964;7.890;2024-03-23T07:09:35;3.83;;;2.30;;
15295;SDS011;7749;49.964;7.890;2024-03-23T07:12:03;3.57;;;2.90;;
15295;SDS011;7749;49.964;7.890;2024-03-23T07:14:30;5.63;;;3.13;;
15295;SDS011;7749;49.964;7.890;2024-03-23T07:16:56;5.00;;;2.90;;
15295;SDS011;7749;49.964;7.890;2024-03-23T07:19:23;5.00;;;2.63;;
15295;SDS011;7749;49.964;7.890;2024-03-23T07:21:50;4.70;;;3.10;;
15295;SDS011;7749;49.964;7.890;2024-03-23T07:24:16;3.90;;;3.00;;
15295;SDS011;7749;49.964;7.890;2024-03-23T07:26:44;7.57;;;3.37;;
15295;SDS011;7749;49.964;7.890;2024-03-23T07:29:10;5.13;;;3.20;;
15295;SDS011;7749;49.964;7.890;2024-03-23T07:31:36;7.73;;;3.70;;
15295;SDS011;7749;49.964;7.890;2024-03-23T07:34:04;6.17;;;3.77;;
15295;SDS011;7749;49.964;7.890;2024-03-23T07:36:31;6.40;;;3.90;;
15295;SDS011;7749;49.964;7.890;2024-03-23T07:38:57;5.17;;;3.53;;
15295;SDS011;7749;49.964;7.890;2024-03-23T07:41:24;5.20;;;3.93;;
15295;SDS011;7749;49.964;7.890;2024-03-23T07:43:50;7.47;;;3.70;;
15295;SDS011;7749;49.964;7.890;2024-03-23T07:46:17;6.33;;;3.67;;
15295;SDS011;7749;49.964;7.890;2024-03-23T07:48:45;6.83;;;4.23;;
15295;SDS011;7749;49.964;7.890;2024-03-23T07:51:15;9.73;;;4.60;;
15295;SDS011;7749;49.964;7.890;2024-03-23T07:53:43;7.87;;;3.37;;
15295;SDS011;7749;49.964;7.890;2024-03-23T07:56:14;6.13;;;3.83;;
15295;SDS011;7749;49.964;7.890;2024-03-23T07:58:42;5.33;;;3.20;;
15295;SDS011;7749;49.964;7.890;2024-03-23T08:01:09;6.10;;;3.33;;
15295;SDS011;7749;49.964;7.890;2024-03-23T08:03:41;6.93;;;2.97;;
15295;SDS011;7749;49.964;7.890;2024-03-23T08:06:16;8.47;;;3.10;;
15295;SDS011;7749;49.964;7.890;2024-03-23T08:08:47;9.17;;;3.17;;
15295;SDS011;7749;49.964;7.890;2024-03-23T08:11:15;6.43;;;3.80;;
15295;SDS011;7749;49.964;7.890;2024-03-23T08:13:41;10.57;;;3.83;;
15295;SDS011;7749;49.964;7.890;2024-03-23T08:16:10;6.13;;;3.33;;
15295;SDS011;7749;49.964;7.890;2024-03-23T08:18:40;10.03;;;4.07;;
15295;SDS011;7749;49.964;7.890;2024-03-23T08:21:06;8.70;;;3.53;;
15295;SDS011;7749;49.964;7.890;2024-03-23T08:23:33;6.57;;;3.53;;
15295;SDS011;7749;49.964;7.890;2024-03-23T08:26:04;6.53;;;3.50;;
15295;SDS011;7749;49.964;7.890;2024-03-23T08:28:31;7.50;;;3.53;;
15295;SDS011;7749;49.964;7.890;2024-03-23T08:31:05;8.47;;;3.20;;
15295;SDS011;7749;49.964;7.890;2024-03-23T08:33:35;5.40;;;3.20;;
15295;SDS011;7749;49.964;7.890;2024-03-23T08:36:03;8.27;;;4.00;;
15295;SDS011;7749;49.964;7.890;2024-03-23T08:38:31;6.30;;;3.47;;
15295;SDS011;7749;49.964;7.890;2024-03-23T08:43:29;7.20;;;3.00;;
15295;SDS011;7749;49.964;7.890;2024-03-23T08:46:06;7.23;;;3.00;;
15295;SDS011;7749;49.964;7.890;2024-03-23T08:48:40;6.67;;;2.50;;
15295;SDS011;7749;49.964;7.890;2024-03-23T08:51:09;9.80;;;2.90;;
15295;SDS011;7749;49.964;7.890;2024-03-23T08:53:37;10.77;;;3.00;;
15295;SDS011;7749;49.964;7.890;2024-03-23T08:56:04;7.30;;;2.70;;
15295;SDS011;7749;49.964;7.890;2024-03-23T08:58:32;9.97;;;3.20;;
15295;SDS011;7749;49.964;7.890;2024-03-23T09:01:07;6.23;;;2.90;;
15295;SDS011;7749;49.964;7.890;2024-03-23T09:03:37;6.57;;;3.70;;
15295;SDS011;7749;49.964;7.890;2024-03-23T09:06:10;8.80;;;2.70;;
15295;SDS011;7749;49.964;7.890;2024-03-23T09:08:40;8.47;;;2.50;;
15295;SDS011;7749;49.964;7.890;2024-03-23T09:11:08;7.33;;;2.37;;
15295;SDS011;7749;49.964;7.890;2024-03-23T09:13:36;7.60;;;2.70;;
15295;SDS011;7749;49.964;7.890;2024-03-23T09:16:03;6.90;;;2.50;;
15295;SDS011;7749;49.964;7.890;2024-03-23T09:18:31;6.47;;;2.67;;
15295;SDS011;7749;49.964;7.890;2024-03-23T09:20:58;5.30;;;2.93;;
15295;SDS011;7749;49.964;7.890;2024-03-23T09:23:25;7.43;;;2.80;;
15295;SDS011;7749;49.964;7.890;2024-03-23T09:25:51;6.73;;;3.07;;
15295;SDS011;7749;49.964;7.890;2024-03-23T09:28:18;7.07;;;2.90;;
15295;SDS011;7749;49.964;7.890;2024-03-23T09:30:44;6.90;;;2.63;;
15295;SDS011;7749;49.964;7.890;2024-03-23T09:33:11;6.57;;;2.77;;
15295;SDS011;7749;49.964;7.890;2024-03-23T09:35:43;5.77;;;2.70;;
15295;SDS011;7749;49.964;7.890;2024-03-23T09:38:10;7.40;;;3.30;;
15295;SDS011;7749;49.964;7.890;2024-03-23T09:40:40;9.40;;;2.90;;
15295;SDS011;7749;49.964;7.890;2024-03-23T09:43:07;5.33;;;2.93;;
15295;SDS011;7749;49.964;7.890;2024-03-23T09:45:38;8.77;;;2.43;;
15295;SDS011;7749;49.964;7.890;2024-03-23T09:48:09;5.70;;;2.83;;
15295;SDS011;7749;49.964;7.890;2024-03-23T09:50:36;7.10;;;2.93;;
15295;SDS011;7749;49.964;7.890;2024-03-23T09:53:06;10.23;;;3.17;;
15295;SDS011;7749;49.964;7.890;2024-03-23T09:55:34;5.37;;;2.50;;
15295;SDS011;7749;49.964;7.890;2024-03-23T09:58:04;9.20;;;3.20;;
15295;SDS011;7749;49.964;7.890;2024-03-23T10:00:31;4.17;;;2.10;;
15295;SDS011;7749;49.964;7.890;2024-03-23T10:02:58;6.73;;;2.77;;
15295;SDS011;7749;49.964;7.890;2024-03-23T10:05:30;3.30;;;1.80;;
15295;SDS011;7749;49.964;7.890;2024-03-23T10:07:58;5.13;;;2.30;;
15295;SDS011;7749;49.964;7.890;2024-03-23T10:10:24;7.80;;;3.50;;
15295;SDS011;7749;49.964;7.890;2024-03-23T10:12:51;7.33;;;4.03;;
15295;SDS011;7749;49.964;7.890;2024-03-23T10:15:18;6.10;;;2.57;;
15295;SDS011;7749;49.964;7.890;2024-03-23T10:17:50;6.80;;;3.67;;
15295;SDS011;7749;49.964;7.890;2024-03-23T10:20:20;5.30;;;2.50;;
15295;SDS011;7749;49.964;7.890;2024-03-23T10:22:49;4.43;;;2.90;;
15295;SDS011;7749;49.964;7.890;2024-03-23T10:25:17;5.07;;;2.60;;
15295;SDS011;7749;49.964;7.890;2024-03-23T10:28:00;6.03;;;2.93;;
15295;SDS011;7749;49.964;7.890;2024-03-23T10:30:27;5.10;;;3.43;;
15295;SDS011;7749;49.964;7.890;2024-03-23T10:33:07;4.10;;;2.80;;
15295;SDS011;7749;49.964;7.890;2024-03-23T10:35:34;4.43;;;2.80;;
15295;SDS011;7749;49.964;7.890;2024-03-23T10:38:02;6.40;;;2.90;;
15295;SDS011;7749;49.964;7.890;2024-03-23T10:40:36;4.50;;;2.67;;
15295;SDS011;7749;49.964;7.890;2024-03-23T10:43:03;5.97;;;3.00;;
15295;SDS011;7749;49.964;7.890;2024-03-23T10:45:30;6.00;;;2.73;;
15295;SDS011;7749;49.964;7.890;2024-03-23T10:47:57;4.10;;;2.70;;
15295;SDS011;7749;49.964;7.890;2024-03-23T10:50:23;4.53;;;2.57;;
15295;SDS011;7749;49.964;7.890;2024-03-23T10:52:50;6.10;;;2.90;;
15295;SDS011;7749;49.964;7.890;2024-03-23T10:55:19;7.13;;;3.03;;
15295;SDS011;7749;49.964;7.890;2024-03-23T10:57:49;6.60;;;3.00;;
15295;SDS011;7749;49.964;7.890;2024-03-23T11:00:19;7.03;;;3.40;;
15295;SDS011;7749;49.964;7.890;2024-03-23T11:02:50;7.20;;;3.90;;
15295;SDS011;7749;49.964;7.890;2024-03-23T11:07:52;7.20;;;4.00;;
15295;SDS011;7749;49.964;7.890;2024-03-23T11:10:26;9.13;;;3.10;;
15295;SDS011;7749;49.964;7.890;2024-03-23T11:12:55;8.27;;;3.47;;
15295;SDS011;7749;49.964;7.890;2024-03-23T11:15:24;5.17;;;2.97;;
15295;SDS011;7749;49.964;7.890;2024-03-23T11:18:07;9.17;;;3.27;;
15295;SDS011;7749;49.964;7.890;2024-03-23T11:20:37;5.53;;;2.90;;
15295;SDS011;7749;49.964;7.890;2024-03-23T11:23:04;5.90;;;3.03;;
15295;SDS011;7749;49.964;7.890;2024-03-23T11:25:30;6.57;;;2.70;;
15295;SDS011;7749;49.964;7.890;2024-03-23T11:27:57;7.10;;;2.40;;
15295;SDS011;7749;49.964;7.890;2024-03-23T11:30:36;3.93;;;2.20;;
15295;SDS011;7749;49.964;7.890;2024-03-23T11:33:04;4.07;;;2.50;;
15295;SDS011;7749;49.964;7.890;2024-03-23T11:35:31;8.00;;;3.47;;
15295;SDS011;7749;49.964;7.890;2024-03-23T11:40:40;6.83;;;2.83;;
15295;SDS011;7749;49.964;7.890;2024-03-23T11:43:08;6.03;;;2.57;;
15295;SDS011;7749;49.964;7.890;2024-03-23T11:45:38;5.43;;;3.00;;
15295;SDS011;7749;49.964;7.890;2024-03-23T11:50:35;8.10;;;2.83;;
15295;SDS011;7749;49.964;7.890;2024-03-23T11:53:13;4.00;;;2.30;;
15295;SDS011;7749;49.964;7.890;2024-03-23T11:58:13;4.22;;;1.95;;
15295;SDS011;7749;49.964;7.890;2024-03-23T12:00:40;4.80;;;1.85;;
15295;SDS011;7749;49.964;7.890;2024-03-23T12:03:07;4.57;;;1.85;;
15295;SDS011;7749;49.964;7.890;2024-03-23T12:05:33;4.68;;;1.73;;
15295;SDS011;7749;49.964;7.890;2024-03-23T12:10:46;4.93;;;1.92;;
15295;SDS011;7749;49.964;7.890;2024-03-23T12:13:20;7.67;;;2.10;;
15295;SDS011;7749;49.964;7.890;2024-03-23T12:15:49;5.33;;;2.33;;
15295;SDS011;7749;49.964;7.890;2024-03-23T12:18:16;6.67;;;2.10;;
15295;SDS011;7749;49.964;7.890;2024-03-23T12:20:43;3.30;;;1.20;;
15295;SDS011;7749;49.964;7.890;2024-03-23T12:23:13;0.70;;;0.70;;
15295;SDS011;7749;49.964;7.890;2024-03-23T12:25:39;1.00;;;0.90;;
15295;SDS011;7749;49.964;7.890;2024-03-23T12:28:06;0.83;;;0.70;;
15295;SDS011;7749;49.964;7.890;2024-03-23T12:30:34;3.03;;;0.80;;
15295;SDS011;7749;49.964;7.890;2024-03-23T12:33:02;2.10;;;0.97;;
15295;SDS011;7749;49.964;7.890;2024-03-23T12:35:29;1.33;;;0.93;;
15295;SDS011;7749;49.964;7.890;2024-03-23T12:37:55;1.43;;;1.00;;
15295;SDS011;7749;49.964;7.890;2024-03-23T12:40:22;2.27;;;0.77;;
15295;SDS011;7749;49.964;7.890;2024-03-23T12:42:48;1.20;;;0.70;;
15295;SDS011;7749;49.964;7.890;2024-03-23T12:45:15;1.53;;;0.67;;
15295;SDS011;7749;49.964;7.890;2024-03-23T12:47:41;1.67;;;0.60;;
15295;SDS011;7749;49.964;7.890;2024-03-23T12:50:08;1.50;;;0.80;;
15295;SDS011;7749;49.964;7.890;2024-03-23T12:52:36;0.90;;;0.70;;
15295;SDS011;7749;49.964;7.890;2024-03-23T12:55:03;0.67;;;0.43;;
15295;SDS011;7749;49.964;7.890;2024-03-23T12:57:32;0.55;;;0.40;;
15295;SDS011;7749;49.964;7.890;2024-03-23T12:59:59;1.15;;;0.50;;
15295;SDS011;7749;49.964;7.890;2024-03-23T13:02:26;2.05;;;0.60;;
15295;SDS011;7749;49.964;7.890;2024-03-23T13:04:52;1.05;;;0.60;;
15295;SDS011;7749;49.964;7.890;2024-03-23T13:07:19;0.85;;;0.50;;
15295;SDS011;7749;49.964;7.890;2024-03-23T13:09:51;1.40;;;0.52;;
15295;SDS011;7749;49.964;7.890;2024-03-23T13:12:18;2.22;;;0.73;;
15295;SDS011;7749;49.964;7.890;2024-03-23T13:14:46;1.25;;;0.55;;
15295;SDS011;7749;49.964;7.890;2024-03-23T13:17:12;1.98;;;0.50;;
15295;SDS011;7749;49.964;7.890;2024-03-23T13:19:39;2.23;;;0.70;;
15295;SDS011;7749;49.964;7.890;2024-03-23T13:22:06;0.93;;;0.50;;
15295;SDS011;7749;49.964;7.890;2024-03-23T13:24:32;2.47;;;0.60;;
15295;SDS011;7749;49.964;7.890;2024-03-23T13:26:59;1.13;;;0.63;;
15295;SDS011;7749;49.964;7.890;2024-03-23T13:29:25;1.50;;;0.63;;
15295;SDS011;7749;49.964;7.890;2024-03-23T13:31:52;1.97;;;0.60;;
15295;SDS011;7749;49.964;7.890;2024-03-23T13:34:19;1.63;;;0.60;;
15295;SDS011;7749;49.964;7.890;2024-03-23T13:36:46;0.60;;;0.50;;
15295;SDS011;7749;49.964;7.890;2024-03-23T13:39:13;1.00;;;0.70;;
15295;SDS011;7749;49.964;7.890;2024-03-23T13:41:42;1.58;;;0.70;;
15295;SDS011;7749;49.964;7.890;2024-03-23T13:44:10;1.92;;;0.73;;
15295;SDS011;7749;49.964;7.890;2024-03-23T13:46:41;1.38;;;0.70;;
15295;SDS011;7749;49.964;7.890;2024-03-23T13:49:18;1.00;;;0.60;;
15295;SDS011;7749;49.964;7.890;2024-03-23T13:51:53;2.38;;;0.55;;
15295;SDS011;7749;49.964;7.890;2024-03-23T13:54:20;1.13;;;0.63;;
15295;SDS011;7749;49.964;7.890;2024-03-23T13:56:48;1.83;;;0.73;;
15295;SDS011;7749;49.964;7.890;2024-03-23T13:59:15;2.08;;;1.00;;
15295;SDS011;7749;49.964;7.890;2024-03-23T14:01:43;2.75;;;0.80;;
15295;SDS011;7749;49.964;7.890;2024-03-23T14:04:12;1.85;;;0.85;;
15295;SDS011;7749;49.964;7.890;2024-03-23T14:06:39;1.25;;;0.82;;
15295;SDS011;7749;49.964;7.890;2024-03-23T14:09:06;1.30;;;0.65;;
15295;SDS011;7749;49.964;7.890;2024-03-23T14:11:35;1.85;;;0.80;;
15295;SDS011;7749;49.964;7.890;2024-03-23T14:14:09;0.95;;;0.68;;
15295;SDS011;7749;49.964;7.890;2024-03-23T14:16:35;1.90;;;1.00;;
15295;SDS011;7749;49.964;7.890;2024-03-23T14:19:02;1.35;;;0.60;;
15295;SDS011;7749;49.964;7.890;2024-03-23T14:21:31;1.80;;;0.98;;
15295;SDS011;7749;49.964;7.890;2024-03-23T14:23:58;2.17;;;0.82;;
15295;SDS011;7749;49.964;7.890;2024-03-23T14:26:29;1.70;;;0.88;;
15295;SDS011;7749;49.964;7.890;2024-03-23T14:28:56;2.15;;;0.90;;
15295;SDS011;7749;49.964;7.890;2024-03-23T14:31:23;3.20;;;1.25;;
15295;SDS011;7749;49.964;7.890;2024-03-23T14:33:51;1.75;;;0.80;;
15295;SDS011;7749;49.964;7.890;2024-03-23T14:36:17;1.40;;;0.80;;
15295;SDS011;7749;49.964;7.890;2024-03-23T14:38:48;2.07;;;1.23;;
15295;SDS011;7749;49.964;7.890;2024-03-23T14:41:14;1.70;;;0.70;;
15295;SDS011;7749;49.964;7.890;2024-03-23T14:43:41;1.60;;;0.60;;
15295;SDS011;7749;49.964;7.890;2024-03-23T14:46:13;1.47;;;0.80;;
15295;SDS011;7749;49.964;7.890;2024-03-23T14:48:44;3.17;;;0.80;;
15295;SDS011;7749;49.964;7.890;2024-03-23T14:51:12;0.60;;;0.50;;
15295;SDS011;7749;49.964;7.890;2024-03-23T14:53:39;1.00;;;0.80;;
15295;SDS011;7749;49.964;7.890;2024-03-23T14:56:07;1.50;;;0.70;;
15295;SDS011;7749;49.964;7.890;2024-03-23T14:58:35;1.57;;;0.70;;
15295;SDS011;7749;49.964;7.890;2024-03-23T15:01:05;2.43;;;0.70;;
15295;SDS011;7749;49.964;7.890;2024-03-23T15:03:35;3.00;;;0.60;;
15295;SDS011;7749;49.964;7.890;2024-03-23T15:06:04;3.53;;;0.80;;
15295;SDS011;7749;49.964;7.890;2024-03-23T15:08:31;2.30;;;0.80;;
15295;SDS011;7749;49.964;7.890;2024-03-23T15:10:59;3.13;;;0.80;;
15295;SDS011;7749;49.964;7.890;2024-03-23T15:13:26;1.70;;;0.70;;
15295;SDS011;7749;49.964;7.890;2024-03-23T15:15:52;0.63;;;0.50;;
15295;SDS011;7749;49.964;7.890;2024-03-23T15:18:19;1.20;;;0.50;;
15295;SDS011;7749;49.964;7.890;2024-03-23T15:20:55;0.93;;;0.47;;
15295;SDS011;7749;49.964;7.890;2024-03-23T15:23:28;0.30;;;0.30;;
15295;SDS011;7749;49.964;7.890;2024-03-23T15:28:22;4.60;;;0.85;;
15295;SDS011;7749;49.964;7.890;2024-03-23T15:30:49;1.13;;;0.55;;
15295;SDS011;7749;49.964;7.890;2024-03-23T15:33:15;1.05;;;0.60;;
15295;SDS011;7749;49.964;7.890;2024-03-23T15:35:42;2.05;;;0.90;;
15295;SDS011;7749;49.964;7.890;2024-03-23T15:38:08;1.25;;;0.52;;
15295;SDS011;7749;49.964;7.890;2024-03-23T15:40:35;1.60;;;0.52;;
15295;SDS011;7749;49.964;7.890;2024-03-23T15:43:02;3.85;;;0.55;;
15295;SDS011;7749;49.964;7.890;2024-03-23T15:45:28;1.97;;;0.70;;
15295;SDS011;7749;49.964;7.890;2024-03-23T15:47:54;0.87;;;0.60;;
15295;SDS011;7749;49.964;7.890;2024-03-23T15:50:21;0.90;;;0.50;;
15295;SDS011;7749;49.964;7.890;2024-03-23T15:52:47;1.93;;;0.70;;
15295;SDS011;7749;49.964;7.890;2024-03-23T15:55:14;1.77;;;0.60;;
15295;SDS011;7749;49.964;7.890;2024-03-23T15:57:40;2.80;;;0.80;;
15295;SDS011;7749;49.964;7.890;2024-03-23T16:00:07;4.47;;;1.63;;
15295;SDS011;7749;49.964;7.890;2024-03-23T16:02:35;3.97;;;0.90;;
15295;SDS011;7749;49.964;7.890;2024-03-23T16:05:01;1.63;;;0.60;;
15295;SDS011;7749;49.964;7.890;2024-03-23T16:07:29;2.27;;;1.20;;